sensor_id;sensor_type;location;lat;lon;timestamp;temperature;humidity
4813;DHT22;2420;51.202;8.698;2023-02-01T00:01:44;3.50;1.00
4813;DHT22;2420;51.202;8.698;2023-02-01T00:04:10;3.60;1.00
4813;DHT22;2420;51.202;8.698;2023-02-01T00:06:35;3.70;1.00
4813;DHT22;2420;51.202;8.698;2023-02-01T00:09:01;3.50;1.00
4813;DHT22;2420;51.202;8.698;2023-02-01T00:11:26;3.40;1.00
4813;DHT22;2420;51.202;8.698;2023-02-01T00:13:52;3.50;1.00
4813;DHT22;2420;51.202;8.698;2023-02-01T00:16:20;3.50;1.00
4813;DHT22;2420;51.202;8.698;2023-02-01T00:18:47;3.40;1.00
4813;DHT22;2420;51.202;8.698;2023-02-01T00:21:15;3.50;1.00
4813;DHT22;2420;51.202;8.698;2023-02-01T00:23:41;3.50;1.00
4813;DHT22;2420;51.202;8.698;2023-02-01T00:26:14;3.70;1.00
4813;DHT22;2420;51.202;8.698;2023-02-01T00:28:41;3.50;1.00
4813;DHT22;2420;51.202;8.698;2023-02-01T00:31:06;3.30;1.00
4813;DHT22;2420;51.202;8.698;2023-02-01T00:33:32;3.60;1.00
4813;DHT22;2420;51.202;8.698;2023-02-01T00:36:03;3.50;1.00
4813;DHT22;2420;51.202;8.698;2023-02-01T00:38:30;3.20;1.00
4813;DHT22;2420;51.202;8.698;2023-02-01T00:41:03;3.40;1.00
4813;DHT22;2420;51.202;8.698;2023-02-01T00:43:31;3.40;1.00
4813;DHT22;2420;51.202;8.698;2023-02-01T00:45:57;3.40;1.00
4813;DHT22;2420;51.202;8.698;2023-02-01T00:48:23;3.20;1.00
4813;DHT22;2420;51.202;8.698;2023-02-01T00:50:49;3.30;1.00
4813;DHT22;2420;51.202;8.698;2023-02-01T00:53:14;3.50;1.00
4813;DHT22;2420;51.202;8.698;2023-02-01T00:55:40;3.20;1.00
4813;DHT22;2420;51.202;8.698;2023-02-01T00:58:05;3.40;1.00
4813;DHT22;2420;51.202;8.698;2023-02-01T01:00:34;3.40;1.00
4813;DHT22;2420;51.202;8.698;2023-02-01T01:02:59;3.30;1.00
4813;DHT22;2420;51.202;8.698;2023-02-01T01:05:25;3.30;1.00
4813;DHT22;2420;51.202;8.698;2023-02-01T01:07:53;3.50;1.00
4813;DHT22;2420;51.202;8.698;2023-02-01T01:10:19;3.50;1.00
4813;DHT22;2420;51.202;8.698;2023-02-01T01:12:44;3.70;1.00
4813;DHT22;2420;51.202;8.698;2023-02-01T01:15:10;3.70;1.00
4813;DHT22;2420;51.202;8.698;2023-02-01T01:17:36;3.70;1.00
4813;DHT22;2420;51.202;8.698;2023-02-01T01:20:02;3.60;1.00
4813;DHT22;2420;51.202;8.698;2023-02-01T01:22:28;3.60;1.00
4813;DHT22;2420;51.202;8.698;2023-02-01T01:24:53;3.90;1.00
4813;DHT22;2420;51.202;8.698;2023-02-01T01:27:19;3.90;1.00
4813;DHT22;2420;51.202;8.698;2023-02-01T01:29:49;3.90;1.00
4813;DHT22;2420;51.202;8.698;2023-02-01T01:32:14;3.60;1.00
4813;DHT22;2420;51.202;8.698;2023-02-01T01:34:40;3.70;1.00
4813;DHT22;2420;51.202;8.698;2023-02-01T01:37:05;3.90;1.00
4813;DHT22;2420;51.202;8.698;2023-02-01T01:39:31;3.70;1.00
4813;DHT22;2420;51.202;8.698;2023-02-01T01:41:56;3.90;1.00
4813;DHT22;2420;51.202;8.698;2023-02-01T01:47:29;3.70;1.00
4813;DHT22;2420;51.202;8.698;2023-02-01T01:49:56;3.70;1.00
4813;DHT22;2420;51.202;8.698;2023-02-01T01:52:22;3.70;1.00
4813;DHT22;2420;51.202;8.698;2023-02-01T01:54:50;3.90;1.00
4813;DHT22;2420;51.202;8.698;2023-02-01T01:57:25;3.70;1.00
4813;DHT22;2420;51.202;8.698;2023-02-01T02:00:00;3.70;1.00
4813;DHT22;2420;51.202;8.698;2023-02-01T02:02:27;3.80;1.00
4813;DHT22;2420;51.202;8.698;2023-02-01T02:04:53;3.70;1.00
4813;DHT22;2420;51.202;8.698;2023-02-01T02:07:26;3.80;1.00
4813;DHT22;2420;51.202;8.698;2023-02-01T02:09:53;4.00;1.00
4813;DHT22;2420;51.202;8.698;2023-02-01T02:12:19;3.70;1.00
4813;DHT22;2420;51.202;8.698;2023-02-01T02:14:44;3.70;1.00
4813;DHT22;2420;51.202;8.698;2023-02-01T02:23:05;3.60;1.00
4813;DHT22;2420;51.202;8.698;2023-02-01T02:25:46;3.90;1.00
4813;DHT22;2420;51.202;8.698;2023-02-01T02:28:41;3.70;1.00
4813;DHT22;2420;51.202;8.698;2023-02-01T02:34:12;3.70;1.00
4813;DHT22;2420;51.202;8.698;2023-02-01T02:36:46;3.50;1.00
4813;DHT22;2420;51.202;8.698;2023-02-01T02:39:29;3.80;1.00
4813;DHT22;2420;51.202;8.698;2023-02-01T02:42:17;3.40;1.00
4813;DHT22;2420;51.202;8.698;2023-02-01T02:45:05;3.60;1.00
4813;DHT22;2420;51.202;8.698;2023-02-01T02:48:12;3.50;1.00
4813;DHT22;2420;51.202;8.698;2023-02-01T02:50:49;3.50;1.00
4813;DHT22;2420;51.202;8.698;2023-02-01T02:53:56;3.30;1.00
4813;DHT22;2420;51.202;8.698;2023-02-01T02:56:41;3.40;1.00
4813;DHT22;2420;51.202;8.698;2023-02-01T02:59:27;3.40;1.00
4813;DHT22;2420;51.202;8.698;2023-02-01T03:02:13;3.30;1.00
4813;DHT22;2420;51.202;8.698;2023-02-01T03:04:57;3.30;1.00
4813;DHT22;2420;51.202;8.698;2023-02-01T03:10:23;3.40;1.00
4813;DHT22;2420;51.202;8.698;2023-02-01T03:12:50;3.60;1.00
4813;DHT22;2420;51.202;8.698;2023-02-01T03:15:39;3.30;1.00
4813;DHT22;2420;51.202;8.698;2023-02-01T03:18:54;3.60;1.00
4813;DHT22;2420;51.202;8.698;2023-02-01T03:21:03;3.50;1.00
4813;DHT22;2420;51.202;8.698;2023-02-01T03:23:33;3.70;1.00
4813;DHT22;2420;51.202;8.698;2023-02-01T03:26:00;3.40;1.00
4813;DHT22;2420;51.202;8.698;2023-02-01T03:28:28;3.40;1.00
4813;DHT22;2420;51.202;8.698;2023-02-01T03:30:54;3.40;1.00
4813;DHT22;2420;51.202;8.698;2023-02-01T03:33:23;3.40;1.00
4813;DHT22;2420;51.202;8.698;2023-02-01T03:41:24;3.40;1.00
4813;DHT22;2420;51.202;8.698;2023-02-01T03:44:03;3.50;1.00
4813;DHT22;2420;51.202;8.698;2023-02-01T03:46:37;3.40;1.00
4813;DHT22;2420;51.202;8.698;2023-02-01T03:49:08;3.50;1.00
4813;DHT22;2420;51.202;8.698;2023-02-01T03:51:40;3.50;1.00
4813;DHT22;2420;51.202;8.698;2023-02-01T03:54:10;3.80;1.00
4813;DHT22;2420;51.202;8.698;2023-02-01T03:56:38;3.50;1.00
4813;DHT22;2420;51.202;8.698;2023-02-01T03:59:04;3.60;1.00
4813;DHT22;2420;51.202;8.698;2023-02-01T04:01:30;3.60;1.00
4813;DHT22;2420;51.202;8.698;2023-02-01T04:03:57;3.80;1.00
4813;DHT22;2420;51.202;8.698;2023-02-01T04:06:23;3.60;1.00
4813;DHT22;2420;51.202;8.698;2023-02-01T04:08:50;3.80;1.00
4813;DHT22;2420;51.202;8.698;2023-02-01T04:11:15;3.50;1.00
4813;DHT22;2420;51.202;8.698;2023-02-01T04:13:41;3.70;1.00
4813;DHT22;2420;51.202;8.698;2023-02-01T04:16:06;3.40;1.00
4813;DHT22;2420;51.202;8.698;2023-02-01T04:18:32;3.70;1.00
4813;DHT22;2420;51.202;8.698;2023-02-01T04:20:57;3.40;1.00
4813;DHT22;2420;51.202;8.698;2023-02-01T04:23:23;3.60;1.00
4813;DHT22;2420;51.202;8.698;2023-02-01T04:25:48;3.50;1.00
4813;DHT22;2420;51.202;8.698;2023-02-01T04:28:14;3.50;1.00
4813;DHT22;2420;51.202;8.698;2023-02-01T04:30:39;3.50;1.00
4813;DHT22;2420;51.202;8.698;2023-02-01T04:33:05;3.70;1.00
4813;DHT22;2420;51.202;8.698;2023-02-01T04:35:31;3.40;1.00
4813;DHT22;2420;51.202;8.698;2023-02-01T04:37:56;3.60;1.00
4813;DHT22;2420;51.202;8.698;2023-02-01T04:40:22;3.60;1.00
4813;DHT22;2420;51.202;8.698;2023-02-01T04:42:47;3.50;1.00
4813;DHT22;2420;51.202;8.698;2023-02-01T04:45:13;3.60;1.00
4813;DHT22;2420;51.202;8.698;2023-02-01T04:47:38;3.60;1.00
4813;DHT22;2420;51.202;8.698;2023-02-01T04:50:04;3.60;1.00
4813;DHT22;2420;51.202;8.698;2023-02-01T04:52:31;3.60;1.00
4813;DHT22;2420;51.202;8.698;2023-02-01T04:54:57;3.40;1.00
4813;DHT22;2420;51.202;8.698;2023-02-01T04:57:25;3.50;1.00
4813;DHT22;2420;51.202;8.698;2023-02-01T04:59:50;3.50;1.00
4813;DHT22;2420;51.202;8.698;2023-02-01T05:02:16;3.40;1.00
4813;DHT22;2420;51.202;8.698;2023-02-01T05:04:41;3.80;1.00
4813;DHT22;2420;51.202;8.698;2023-02-01T05:07:07;3.60;1.00
4813;DHT22;2420;51.202;8.698;2023-02-01T05:09:32;3.50;1.00
4813;DHT22;2420;51.202;8.698;2023-02-01T05:11:58;3.80;1.00
4813;DHT22;2420;51.202;8.698;2023-02-01T05:14:42;3.60;1.00
4813;DHT22;2420;51.202;8.698;2023-02-01T05:17:07;3.60;1.00
4813;DHT22;2420;51.202;8.698;2023-02-01T05:19:33;3.40;1.00
4813;DHT22;2420;51.202;8.698;2023-02-01T05:21:58;3.60;1.00
4813;DHT22;2420;51.202;8.698;2023-02-01T05:24:24;3.60;1.00
4813;DHT22;2420;51.202;8.698;2023-02-01T05:26:50;3.60;1.00
4813;DHT22;2420;51.202;8.698;2023-02-01T05:29:16;3.70;1.00
4813;DHT22;2420;51.202;8.698;2023-02-01T05:31:47;3.70;1.00
4813;DHT22;2420;51.202;8.698;2023-02-01T05:34:13;3.70;1.00
4813;DHT22;2420;51.202;8.698;2023-02-01T05:36:39;3.70;1.00
4813;DHT22;2420;51.202;8.698;2023-02-01T05:39:05;3.70;1.00
4813;DHT22;2420;51.202;8.698;2023-02-01T05:41:30;3.60;1.00
4813;DHT22;2420;51.202;8.698;2023-02-01T05:43:56;3.70;1.00
4813;DHT22;2420;51.202;8.698;2023-02-01T05:46:21;3.50;1.00
4813;DHT22;2420;51.202;8.698;2023-02-01T05:48:47;3.60;1.00
4813;DHT22;2420;51.202;8.698;2023-02-01T05:51:13;3.50;1.00
4813;DHT22;2420;51.202;8.698;2023-02-01T05:53:38;3.50;1.00
4813;DHT22;2420;51.202;8.698;2023-02-01T05:56:04;3.30;1.00
4813;DHT22;2420;51.202;8.698;2023-02-01T05:58:30;3.40;1.00
4813;DHT22;2420;51.202;8.698;2023-02-01T06:00:58;3.30;1.00
4813;DHT22;2420;51.202;8.698;2023-02-01T06:03:24;3.20;1.00
4813;DHT22;2420;51.202;8.698;2023-02-01T06:05:49;3.40;1.00
4813;DHT22;2420;51.202;8.698;2023-02-01T06:08:14;3.00;1.00
4813;DHT22;2420;51.202;8.698;2023-02-01T06:10:40;3.40;1.00
4813;DHT22;2420;51.202;8.698;2023-02-01T06:13:06;3.20;1.00
4813;DHT22;2420;51.202;8.698;2023-02-01T06:15:32;3.30;1.00
4813;DHT22;2420;51.202;8.698;2023-02-01T06:17:58;3.20;1.00
4813;DHT22;2420;51.202;8.698;2023-02-01T06:20:23;3.20;1.00
4813;DHT22;2420;51.202;8.698;2023-02-01T06:22:49;3.10;1.00
4813;DHT22;2420;51.202;8.698;2023-02-01T06:25:15;3.20;1.00
4813;DHT22;2420;51.202;8.698;2023-02-01T06:27:42;3.30;1.00
4813;DHT22;2420;51.202;8.698;2023-02-01T06:30:08;3.20;1.00
4813;DHT22;2420;51.202;8.698;2023-02-01T06:32:33;3.20;1.00
4813;DHT22;2420;51.202;8.698;2023-02-01T06:34:59;3.40;1.00
4813;DHT22;2420;51.202;8.698;2023-02-01T06:37:26;3.30;1.00
4813;DHT22;2420;51.202;8.698;2023-02-01T06:39:54;3.40;1.00
4813;DHT22;2420;51.202;8.698;2023-02-01T06:42:20;3.30;1.00
4813;DHT22;2420;51.202;8.698;2023-02-01T06:44:46;3.60;1.00
4813;DHT22;2420;51.202;8.698;2023-02-01T06:47:11;3.40;1.00
4813;DHT22;2420;51.202;8.698;2023-02-01T06:49:37;3.30;1.00
4813;DHT22;2420;51.202;8.698;2023-02-01T06:52:02;3.40;1.00
4813;DHT22;2420;51.202;8.698;2023-02-01T06:54:28;3.60;1.00
4813;DHT22;2420;51.202;8.698;2023-02-01T06:56:57;3.60;1.00
4813;DHT22;2420;51.202;8.698;2023-02-01T06:59:23;3.60;1.00
4813;DHT22;2420;51.202;8.698;2023-02-01T07:01:48;3.40;1.00
4813;DHT22;2420;51.202;8.698;2023-02-01T07:04:14;3.60;1.00
4813;DHT22;2420;51.202;8.698;2023-02-01T07:06:40;3.60;1.00
4813;DHT22;2420;51.202;8.698;2023-02-01T07:09:06;3.70;1.00
4813;DHT22;2420;51.202;8.698;2023-02-01T07:11:32;3.60;1.00
4813;DHT22;2420;51.202;8.698;2023-02-01T07:13:57;3.70;1.00
4813;DHT22;2420;51.202;8.698;2023-02-01T07:16:23;3.80;1.00
4813;DHT22;2420;51.202;8.698;2023-02-01T07:18:50;3.90;1.00
4813;DHT22;2420;51.202;8.698;2023-02-01T07:21:16;3.90;1.00
4813;DHT22;2420;51.202;8.698;2023-02-01T07:23:41;3.80;1.00
4813;DHT22;2420;51.202;8.698;2023-02-01T07:26:10;3.80;1.00
4813;DHT22;2420;51.202;8.698;2023-02-01T07:28:37;3.90;1.00
4813;DHT22;2420;51.202;8.698;2023-02-01T07:33:33;3.70;1.00
4813;DHT22;2420;51.202;8.698;2023-02-01T07:36:01;3.70;1.00
4813;DHT22;2420;51.202;8.698;2023-02-01T07:38:28;3.70;1.00
4813;DHT22;2420;51.202;8.698;2023-02-01T07:41:01;4.00;1.00
4813;DHT22;2420;51.202;8.698;2023-02-01T07:43:27;4.00;1.00
4813;DHT22;2420;51.202;8.698;2023-02-01T07:45:54;4.00;1.00
4813;DHT22;2420;51.202;8.698;2023-02-01T07:48:21;3.90;1.00
4813;DHT22;2420;51.202;8.698;2023-02-01T07:50:46;3.90;1.00
4813;DHT22;2420;51.202;8.698;2023-02-01T07:53:12;4.00;1.00
4813;DHT22;2420;51.202;8.698;2023-02-01T07:55:38;3.90;1.00
4813;DHT22;2420;51.202;8.698;2023-02-01T07:58:04;3.70;1.00
4813;DHT22;2420;51.202;8.698;2023-02-01T08:00:29;4.00;1.00
4813;DHT22;2420;51.202;8.698;2023-02-01T08:03:13;4.10;1.00
4813;DHT22;2420;51.202;8.698;2023-02-01T08:05:39;3.70;1.00
4813;DHT22;2420;51.202;8.698;2023-02-01T08:08:05;3.70;1.00
4813;DHT22;2420;51.202;8.698;2023-02-01T08:10:31;3.40;1.00
4813;DHT22;2420;51.202;8.698;2023-02-01T08:12:59;3.60;1.00
4813;DHT22;2420;51.202;8.698;2023-02-01T08:15:26;3.60;1.00
4813;DHT22;2420;51.202;8.698;2023-02-01T08:17:52;3.40;1.00
4813;DHT22;2420;51.202;8.698;2023-02-01T08:20:19;3.50;1.00
4813;DHT22;2420;51.202;8.698;2023-02-01T08:22:47;3.40;1.00
4813;DHT22;2420;51.202;8.698;2023-02-01T08:25:12;3.20;1.00
4813;DHT22;2420;51.202;8.698;2023-02-01T08:27:38;3.40;1.00
4813;DHT22;2420;51.202;8.698;2023-02-01T08:30:04;3.30;1.00
4813;DHT22;2420;51.202;8.698;2023-02-01T08:32:33;3.10;1.00
4813;DHT22;2420;51.202;8.698;2023-02-01T08:34:58;3.40;1.00
4813;DHT22;2420;51.202;8.698;2023-02-01T08:37:24;3.40;1.00
4813;DHT22;2420;51.202;8.698;2023-02-01T08:39:49;3.50;1.00
4813;DHT22;2420;51.202;8.698;2023-02-01T08:42:16;3.30;1.00
4813;DHT22;2420;51.202;8.698;2023-02-01T08:45:00;3.30;1.00
4813;DHT22;2420;51.202;8.698;2023-02-01T08:47:26;3.30;1.00
4813;DHT22;2420;51.202;8.698;2023-02-01T08:49:51;3.60;1.00
4813;DHT22;2420;51.202;8.698;2023-02-01T08:52:18;3.40;1.00
4813;DHT22;2420;51.202;8.698;2023-02-01T08:54:44;3.40;1.00
4813;DHT22;2420;51.202;8.698;2023-02-01T08:57:09;3.50;1.00
4813;DHT22;2420;51.202;8.698;2023-02-01T08:59:35;3.30;1.00
4813;DHT22;2420;51.202;8.698;2023-02-01T09:02:00;3.40;1.00
4813;DHT22;2420;51.202;8.698;2023-02-01T09:04:26;3.70;1.00
4813;DHT22;2420;51.202;8.698;2023-02-01T09:06:52;3.50;1.00
4813;DHT22;2420;51.202;8.698;2023-02-01T09:09:23;3.70;1.00
4813;DHT22;2420;51.202;8.698;2023-02-01T09:11:49;3.70;1.00
4813;DHT22;2420;51.202;8.698;2023-02-01T09:14:16;3.50;1.00
4813;DHT22;2420;51.202;8.698;2023-02-01T09:16:41;3.80;1.00
4813;DHT22;2420;51.202;8.698;2023-02-01T09:19:07;3.60;1.00
4813;DHT22;2420;51.202;8.698;2023-02-01T09:21:32;3.80;1.00
4813;DHT22;2420;51.202;8.698;2023-02-01T09:23:58;3.80;1.00
4813;DHT22;2420;51.202;8.698;2023-02-01T09:26:24;4.00;1.00
4813;DHT22;2420;51.202;8.698;2023-02-01T09:28:50;3.60;1.00
4813;DHT22;2420;51.202;8.698;2023-02-01T09:31:16;3.70;1.00
4813;DHT22;2420;51.202;8.698;2023-02-01T09:33:41;3.90;1.00
4813;DHT22;2420;51.202;8.698;2023-02-01T09:36:07;3.80;1.00
4813;DHT22;2420;51.202;8.698;2023-02-01T09:38:33;3.60;1.00
4813;DHT22;2420;51.202;8.698;2023-02-01T09:40:58;3.60;1.00
4813;DHT22;2420;51.202;8.698;2023-02-01T09:43:45;3.80;1.00
4813;DHT22;2420;51.202;8.698;2023-02-01T09:46:26;3.50;1.00
4813;DHT22;2420;51.202;8.698;2023-02-01T09:48:56;3.80;1.00
4813;DHT22;2420;51.202;8.698;2023-02-01T09:51:39;3.80;1.00
4813;DHT22;2420;51.202;8.698;2023-02-01T09:54:17;3.80;1.00
4813;DHT22;2420;51.202;8.698;2023-02-01T09:57:31;3.80;1.00
4813;DHT22;2420;51.202;8.698;2023-02-01T09:59:53;3.80;1.00
4813;DHT22;2420;51.202;8.698;2023-02-01T10:02:26;3.90;1.00
4813;DHT22;2420;51.202;8.698;2023-02-01T10:04:55;3.90;1.00
4813;DHT22;2420;51.202;8.698;2023-02-01T10:16:01;3.80;1.00
4813;DHT22;2420;51.202;8.698;2023-02-01T10:19:20;3.90;1.00
4813;DHT22;2420;51.202;8.698;2023-02-01T10:21:41;4.10;1.00
4813;DHT22;2420;51.202;8.698;2023-02-01T10:26:47;3.90;1.00
4813;DHT22;2420;51.202;8.698;2023-02-01T10:29:18;4.10;1.00
4813;DHT22;2420;51.202;8.698;2023-02-01T10:31:44;3.80;1.00
4813;DHT22;2420;51.202;8.698;2023-02-01T10:36:58;4.20;1.00
4813;DHT22;2420;51.202;8.698;2023-02-01T10:39:25;4.30;1.00
4813;DHT22;2420;51.202;8.698;2023-02-01T10:41:51;4.10;1.00
4813;DHT22;2420;51.202;8.698;2023-02-01T10:44:19;4.10;1.00
4813;DHT22;2420;51.202;8.698;2023-02-01T10:46:48;4.20;1.00
4813;DHT22;2420;51.202;8.698;2023-02-01T10:49:18;4.10;1.00
4813;DHT22;2420;51.202;8.698;2023-02-01T10:52:12;4.20;1.00
4813;DHT22;2420;51.202;8.698;2023-02-01T10:54:39;4.20;1.00
4813;DHT22;2420;51.202;8.698;2023-02-01T10:57:08;4.30;1.00
4813;DHT22;2420;51.202;8.698;2023-02-01T10:59:34;4.30;1.00
4813;DHT22;2420;51.202;8.698;2023-02-01T11:02:14;4.40;1.00
4813;DHT22;2420;51.202;8.698;2023-02-01T11:04:41;4.30;1.00
4813;DHT22;2420;51.202;8.698;2023-02-01T11:07:23;4.40;1.00
4813;DHT22;2420;51.202;8.698;2023-02-01T11:09:51;4.30;1.00
4813;DHT22;2420;51.202;8.698;2023-02-01T11:14:51;4.50;1.00
4813;DHT22;2420;51.202;8.698;2023-02-01T11:17:28;4.40;1.00
4813;DHT22;2420;51.202;8.698;2023-02-01T11:20:05;4.50;1.00
4813;DHT22;2420;51.202;8.698;2023-02-01T11:22:31;4.20;1.00
4813;DHT22;2420;51.202;8.698;2023-02-01T11:24:59;4.40;1.00
4813;DHT22;2420;51.202;8.698;2023-02-01T11:27:25;4.40;1.00
4813;DHT22;2420;51.202;8.698;2023-02-01T11:29:53;4.50;1.00
4813;DHT22;2420;51.202;8.698;2023-02-01T11:32:22;4.30;1.00
4813;DHT22;2420;51.202;8.698;2023-02-01T11:35:02;4.50;1.00
4813;DHT22;2420;51.202;8.698;2023-02-01T11:37:40;4.40;1.00
4813;DHT22;2420;51.202;8.698;2023-02-01T11:43:14;4.40;1.00
4813;DHT22;2420;51.202;8.698;2023-02-01T11:45:38;4.30;1.00
4813;DHT22;2420;51.202;8.698;2023-02-01T11:48:15;4.30;1.00
4813;DHT22;2420;51.202;8.698;2023-02-01T11:56:26;4.20;1.00
4813;DHT22;2420;51.202;8.698;2023-02-01T11:59:12;4.20;1.00
4813;DHT22;2420;51.202;8.698;2023-02-01T12:02:18;4.30;1.00
4813;DHT22;2420;51.202;8.698;2023-02-01T12:08:21;3.90;1.00
4813;DHT22;2420;51.202;8.698;2023-02-01T12:13:24;4.00;1.00
4813;DHT22;2420;51.202;8.698;2023-02-01T12:16:15;4.10;1.00
4813;DHT22;2420;51.202;8.698;2023-02-01T12:19:04;4.00;1.00
4813;DHT22;2420;51.202;8.698;2023-02-01T12:26:42;4.20;1.00
4813;DHT22;2420;51.202;8.698;2023-02-01T12:32:34;4.10;1.00
4813;DHT22;2420;51.202;8.698;2023-02-01T12:40:36;4.10;1.00
4813;DHT22;2420;51.202;8.698;2023-02-01T12:43:14;4.00;1.00
4813;DHT22;2420;51.202;8.698;2023-02-01T12:46:02;4.10;1.00
4813;DHT22;2420;51.202;8.698;2023-02-01T12:48:35;4.00;1.00
4813;DHT22;2420;51.202;8.698;2023-02-01T12:51:12;4.00;1.00
4813;DHT22;2420;51.202;8.698;2023-02-01T12:53:50;4.10;1.00
4813;DHT22;2420;51.202;8.698;2023-02-01T12:56:45;4.00;1.00
4813;DHT22;2420;51.202;8.698;2023-02-01T12:59:26;4.20;1.00
4813;DHT22;2420;51.202;8.698;2023-02-01T13:02:01;4.00;1.00
4813;DHT22;2420;51.202;8.698;2023-02-01T13:04:38;4.20;1.00
4813;DHT22;2420;51.202;8.698;2023-02-01T13:07:38;4.10;1.00
4813;DHT22;2420;51.202;8.698;2023-02-01T13:10:24;3.90;1.00
4813;DHT22;2420;51.202;8.698;2023-02-01T13:13:02;3.80;1.00
4813;DHT22;2420;51.202;8.698;2023-02-01T13:15:33;3.60;1.00
4813;DHT22;2420;51.202;8.698;2023-02-01T13:18:03;3.60;1.00
4813;DHT22;2420;51.202;8.698;2023-02-01T13:20:37;3.50;1.00
4813;DHT22;2420;51.202;8.698;2023-02-01T13:23:11;3.50;1.00
4813;DHT22;2420;51.202;8.698;2023-02-01T13:25:49;3.60;1.00
4813;DHT22;2420;51.202;8.698;2023-02-01T13:28:52;3.40;1.00
4813;DHT22;2420;51.202;8.698;2023-02-01T13:37:11;3.40;1.00
4813;DHT22;2420;51.202;8.698;2023-02-01T13:42:51;3.40;1.00
4813;DHT22;2420;51.202;8.698;2023-02-01T13:45:21;3.30;1.00
4813;DHT22;2420;51.202;8.698;2023-02-01T13:47:51;3.60;1.00
4813;DHT22;2420;51.202;8.698;2023-02-01T13:50:33;3.60;1.00
4813;DHT22;2420;51.202;8.698;2023-02-01T13:53:04;3.40;1.00
4813;DHT22;2420;51.202;8.698;2023-02-01T13:55:36;3.40;1.00
4813;DHT22;2420;51.202;8.698;2023-02-01T14:00:38;3.50;1.00
4813;DHT22;2420;51.202;8.698;2023-02-01T14:03:42;3.40;1.00
4813;DHT22;2420;51.202;8.698;2023-02-01T14:06:17;3.50;1.00
4813;DHT22;2420;51.202;8.698;2023-02-01T14:08:44;3.50;1.00
4813;DHT22;2420;51.202;8.698;2023-02-01T14:11:54;3.50;1.00
4813;DHT22;2420;51.202;8.698;2023-02-01T14:19:30;3.70;1.00
4813;DHT22;2420;51.202;8.698;2023-02-01T14:24:51;3.50;1.00
4813;DHT22;2420;51.202;8.698;2023-02-01T14:27:23;3.50;1.00
4813;DHT22;2420;51.202;8.698;2023-02-01T14:30:05;3.70;1.00
4813;DHT22;2420;51.202;8.698;2023-02-01T14:32:36;3.60;1.00
4813;DHT22;2420;51.202;8.698;2023-02-01T14:35:07;3.60;1.00
4813;DHT22;2420;51.202;8.698;2023-02-01T14:37:35;3.50;1.00
4813;DHT22;2420;51.202;8.698;2023-02-01T14:47:54;3.60;1.00
4813;DHT22;2420;51.202;8.698;2023-02-01T14:56:11;3.70;1.00
4813;DHT22;2420;51.202;8.698;2023-02-01T15:01:16;3.70;1.00
4813;DHT22;2420;51.202;8.698;2023-02-01T15:04:11;3.40;1.00
4813;DHT22;2420;51.202;8.698;2023-02-01T15:06:42;3.60;1.00
4813;DHT22;2420;51.202;8.698;2023-02-01T15:09:11;3.70;1.00
4813;DHT22;2420;51.202;8.698;2023-02-01T15:15:09;3.60;1.00
4813;DHT22;2420;51.202;8.698;2023-02-01T15:17:35;3.50;1.00
4813;DHT22;2420;51.202;8.698;2023-02-01T15:22:37;3.60;1.00
4813;DHT22;2420;51.202;8.698;2023-02-01T15:25:03;3.40;1.00
4813;DHT22;2420;51.202;8.698;2023-02-01T15:27:30;3.50;1.00
4813;DHT22;2420;51.202;8.698;2023-02-01T15:33:03;3.90;1.00
4813;DHT22;2420;51.202;8.698;2023-02-01T15:35:43;3.90;1.00
4813;DHT22;2420;51.202;8.698;2023-02-01T15:38:39;3.80;1.00
4813;DHT22;2420;51.202;8.698;2023-02-01T15:46:41;3.70;1.00
4813;DHT22;2420;51.202;8.698;2023-02-01T15:49:30;3.60;1.00
4813;DHT22;2420;51.202;8.698;2023-02-01T15:51:59;3.80;1.00
4813;DHT22;2420;51.202;8.698;2023-02-01T15:54:58;3.80;1.00
4813;DHT22;2420;51.202;8.698;2023-02-01T15:57:35;3.60;1.00
4813;DHT22;2420;51.202;8.698;2023-02-01T16:00:17;3.80;1.00
4813;DHT22;2420;51.202;8.698;2023-02-01T16:02:53;3.80;1.00
4813;DHT22;2420;51.202;8.698;2023-02-01T16:05:40;4.00;1.00
4813;DHT22;2420;51.202;8.698;2023-02-01T16:08:16;3.80;1.00
4813;DHT22;2420;51.202;8.698;2023-02-01T16:10:45;4.00;1.00
4813;DHT22;2420;51.202;8.698;2023-02-01T16:13:11;3.90;1.00
4813;DHT22;2420;51.202;8.698;2023-02-01T16:15:38;4.10;1.00
4813;DHT22;2420;51.202;8.698;2023-02-01T16:18:04;4.30;1.00
4813;DHT22;2420;51.202;8.698;2023-02-01T16:20:30;4.00;1.00
4813;DHT22;2420;51.202;8.698;2023-02-01T16:22:56;4.00;1.00
4813;DHT22;2420;51.202;8.698;2023-02-01T16:25:21;4.20;1.00
4813;DHT22;2420;51.202;8.698;2023-02-01T16:27:47;4.20;1.00
4813;DHT22;2420;51.202;8.698;2023-02-01T16:30:13;4.20;1.00
4813;DHT22;2420;51.202;8.698;2023-02-01T16:32:38;4.30;1.00
4813;DHT22;2420;51.202;8.698;2023-02-01T16:35:09;4.20;1.00
4813;DHT22;2420;51.202;8.698;2023-02-01T16:37:38;4.30;1.00
4813;DHT22;2420;51.202;8.698;2023-02-01T16:40:04;4.30;1.00
4813;DHT22;2420;51.202;8.698;2023-02-01T16:42:29;4.10;1.00
4813;DHT22;2420;51.202;8.698;2023-02-01T16:44:56;4.30;1.00
4813;DHT22;2420;51.202;8.698;2023-02-01T16:47:22;3.90;1.00
4813;DHT22;2420;51.202;8.698;2023-02-01T16:49:48;3.90;1.00
4813;DHT22;2420;51.202;8.698;2023-02-01T16:52:23;4.10;1.00
4813;DHT22;2420;51.202;8.698;2023-02-01T16:54:49;3.90;1.00
4813;DHT22;2420;51.202;8.698;2023-02-01T16:57:17;3.90;1.00
4813;DHT22;2420;51.202;8.698;2023-02-01T16:59:43;3.90;1.00
4813;DHT22;2420;51.202;8.698;2023-02-01T17:02:12;4.10;1.00
4813;DHT22;2420;51.202;8.698;2023-02-01T17:04:38;4.10;1.00
4813;DHT22;2420;51.202;8.698;2023-02-01T17:07:04;4.00;1.00
4813;DHT22;2420;51.202;8.698;2023-02-01T17:09:36;4.00;1.00
4813;DHT22;2420;51.202;8.698;2023-02-01T17:12:02;3.50;1.00
4813;DHT22;2420;51.202;8.698;2023-02-01T17:14:34;3.60;1.00
4813;DHT22;2420;51.202;8.698;2023-02-01T17:17:01;3.60;1.00
4813;DHT22;2420;51.202;8.698;2023-02-01T17:19:27;3.80;1.00
4813;DHT22;2420;51.202;8.698;2023-02-01T17:21:54;3.70;1.00
4813;DHT22;2420;51.202;8.698;2023-02-01T17:24:25;3.80;1.00
4813;DHT22;2420;51.202;8.698;2023-02-01T17:26:50;3.90;1.00
4813;DHT22;2420;51.202;8.698;2023-02-01T17:29:16;3.80;1.00
4813;DHT22;2420;51.202;8.698;2023-02-01T17:31:45;3.90;1.00
4813;DHT22;2420;51.202;8.698;2023-02-01T17:34:12;3.60;1.00
4813;DHT22;2420;51.202;8.698;2023-02-01T17:36:40;3.70;1.00
4813;DHT22;2420;51.202;8.698;2023-02-01T17:39:06;3.70;1.00
4813;DHT22;2420;51.202;8.698;2023-02-01T17:41:32;3.90;1.00
4813;DHT22;2420;51.202;8.698;2023-02-01T17:43:58;3.60;1.00
4813;DHT22;2420;51.202;8.698;2023-02-01T17:46:23;3.90;1.00
4813;DHT22;2420;51.202;8.698;2023-02-01T17:48:52;3.90;1.00
4813;DHT22;2420;51.202;8.698;2023-02-01T17:51:20;3.70;1.00
4813;DHT22;2420;51.202;8.698;2023-02-01T17:53:46;3.90;1.00
4813;DHT22;2420;51.202;8.698;2023-02-01T17:56:15;3.60;1.00
4813;DHT22;2420;51.202;8.698;2023-02-01T17:58:41;3.50;1.00
4813;DHT22;2420;51.202;8.698;2023-02-01T18:01:13;3.60;1.00
4813;DHT22;2420;51.202;8.698;2023-02-01T18:03:39;3.50;1.00
4813;DHT22;2420;51.202;8.698;2023-02-01T18:06:09;3.70;1.00
4813;DHT22;2420;51.202;8.698;2023-02-01T18:08:35;3.40;1.00
4813;DHT22;2420;51.202;8.698;2023-02-01T18:11:01;3.40;1.00
4813;DHT22;2420;51.202;8.698;2023-02-01T18:13:27;3.40;1.00
4813;DHT22;2420;51.202;8.698;2023-02-01T18:15:54;3.00;1.00
4813;DHT22;2420;51.202;8.698;2023-02-01T18:18:20;2.90;1.00
4813;DHT22;2420;51.202;8.698;2023-02-01T18:20:47;3.10;1.00
4813;DHT22;2420;51.202;8.698;2023-02-01T18:23:15;2.90;1.00
4813;DHT22;2420;51.202;8.698;2023-02-01T18:25:41;2.70;1.00
4813;DHT22;2420;51.202;8.698;2023-02-01T18:28:07;2.70;1.00
4813;DHT22;2420;51.202;8.698;2023-02-01T18:30:33;2.50;1.00
4813;DHT22;2420;51.202;8.698;2023-02-01T18:32:59;2.90;1.00
4813;DHT22;2420;51.202;8.698;2023-02-01T18:35:27;3.00;1.00
4813;DHT22;2420;51.202;8.698;2023-02-01T18:37:53;2.90;1.00
4813;DHT22;2420;51.202;8.698;2023-02-01T18:40:26;2.90;1.00
4813;DHT22;2420;51.202;8.698;2023-02-01T18:42:52;3.00;1.00
4813;DHT22;2420;51.202;8.698;2023-02-01T18:45:37;3.00;1.00
4813;DHT22;2420;51.202;8.698;2023-02-01T18:48:04;3.20;1.00
4813;DHT22;2420;51.202;8.698;2023-02-01T18:50:33;3.40;1.00
4813;DHT22;2420;51.202;8.698;2023-02-01T18:53:00;3.30;1.00